createdAt,value
2022-08-17T00:02:25.151Z,19.01
2022-08-17T00:04:55.089Z,18.93
2022-08-17T00:07:22.387Z,18.88
2022-08-17T00:09:49.372Z,18.83
2022-08-17T00:12:42.563Z,18.76
2022-08-17T00:15:04.971Z,18.69
2022-08-17T00:17:31.832Z,18.65
2022-08-17T00:19:59.755Z,18.61
2022-08-17T00:22:32.623Z,18.56
2022-08-17T00:25:07.496Z,18.51
2022-08-17T00:27:35.298Z,18.47
2022-08-17T00:30:02.600Z,18.43
2022-08-17T00:33:22.800Z,18.37
2022-08-17T00:35:25.122Z,18.32
2022-08-17T00:37:52.583Z,18.25
2022-08-17T00:40:20.228Z,18.18
2022-08-17T00:42:49.010Z,18.11
2022-08-17T00:45:17.885Z,18.05
2022-08-17T00:47:44.747Z,18.00
2022-08-17T00:50:14.802Z,17.93
2022-08-17T00:52:52.464Z,17.86
2022-08-17T00:55:20.232Z,17.79
2022-08-17T00:57:54.761Z,17.72
2022-08-17T01:00:30.006Z,17.70
2022-08-17T01:03:10.187Z,17.64
2022-08-17T01:05:42.377Z,17.60
2022-08-17T01:08:13.359Z,17.53
2022-08-17T01:10:59.259Z,17.51
2022-08-17T01:13:40.809Z,17.53
2022-08-17T01:16:16.158Z,17.55
2022-08-17T01:18:45.542Z,17.57
2022-08-17T01:22:03.119Z,17.60
2022-08-17T01:24:30.760Z,17.56
2022-08-17T01:27:00.812Z,17.54
2022-08-17T01:29:30.810Z,17.48
2022-08-17T01:32:01.997Z,17.47
2022-08-17T01:34:32.775Z,17.47
2022-08-17T01:37:11.297Z,17.44
2022-08-17T01:39:43.699Z,17.38
2022-08-17T01:42:20.313Z,17.35
2022-08-17T01:44:47.143Z,17.33
2022-08-17T01:47:14.154Z,17.29
2022-08-17T01:49:41.007Z,17.26
2022-08-17T01:52:10.996Z,17.21
2022-08-17T01:54:41.389Z,17.19
2022-08-17T01:57:09.337Z,17.17
2022-08-17T01:59:36.570Z,17.13
2022-08-17T02:02:04.902Z,17.09
2022-08-17T02:04:32.101Z,17.06
2022-08-17T02:06:58.918Z,17.05
2022-08-17T02:09:29.841Z,17.03
2022-08-17T02:11:59.246Z,16.96
2022-08-17T02:14:26.553Z,16.96
2022-08-17T02:16:54.231Z,16.92
2022-08-17T02:19:22.048Z,16.91
2022-08-17T02:21:52.018Z,16.86
2022-08-17T02:24:58.378Z,16.86
2022-08-17T02:27:13.729Z,16.83
2022-08-17T02:29:40.718Z,16.82
2022-08-17T02:32:20.884Z,16.82
2022-08-17T02:34:54.759Z,16.78
2022-08-17T02:37:21.540Z,16.74
2022-08-17T02:39:48.384Z,16.72
2022-08-17T02:42:15.698Z,16.68
2022-08-17T02:44:42.516Z,16.68
2022-08-17T02:47:10.876Z,16.65
2022-08-17T02:49:38.205Z,16.65
2022-08-17T02:52:07.135Z,16.64
2022-08-17T02:54:39.984Z,16.63
2022-08-17T02:57:10.169Z,16.61
2022-08-17T02:59:38.690Z,16.64
2022-08-17T03:02:11.253Z,16.62
2022-08-17T03:04:38.837Z,16.62
2022-08-17T03:07:05.798Z,16.66
2022-08-17T03:09:32.930Z,16.72
2022-08-17T03:12:08.382Z,16.81
2022-08-17T03:14:41.760Z,16.86
2022-08-17T03:17:10.740Z,16.96
2022-08-17T03:19:43.084Z,17.08
2022-08-17T03:22:36.623Z,17.23
2022-08-17T03:24:57.976Z,17.35
2022-08-17T03:27:24.772Z,17.54
2022-08-17T03:29:51.581Z,17.73
2022-08-17T03:32:20.595Z,17.99
2022-08-17T03:34:47.815Z,18.16
2022-08-17T03:37:14.849Z,18.23
2022-08-17T03:39:41.853Z,18.37
2022-08-17T03:42:32.028Z,18.68
2022-08-17T03:45:01.168Z,19.14
2022-08-17T03:47:46.845Z,19.59
2022-08-17T03:50:33.824Z,20.14
2022-08-17T03:53:22.264Z,20.55
2022-08-17T03:56:07.994Z,20.93
2022-08-17T03:58:37.459Z,21.42
2022-08-17T04:01:07.631Z,21.78
2022-08-17T04:03:34.609Z,22.13
2022-08-17T04:06:02.310Z,22.41
2022-08-17T04:08:30.603Z,22.64
2022-08-17T04:10:58.272Z,22.87
2022-08-17T04:13:25.723Z,23.24
2022-08-17T04:15:52.871Z,23.73
2022-08-17T04:18:19.996Z,24.24
2022-08-17T04:20:47.291Z,24.99
2022-08-17T04:23:19.192Z,25.66
2022-08-17T04:25:49.806Z,26.14
2022-08-17T04:28:18.722Z,26.44
2022-08-17T04:30:47.402Z,26.46
2022-08-17T04:33:20.856Z,26.30
2022-08-17T04:35:56.728Z,26.08
2022-08-17T04:38:26.545Z,26.15
2022-08-17T04:41:12.303Z,26.45
2022-08-17T04:43:40.966Z,27.13
2022-08-17T04:46:11.398Z,28.00
2022-08-17T04:48:42.682Z,28.81
2022-08-17T04:51:17.198Z,29.68
2022-08-17T04:53:46.295Z,30.13
2022-08-17T04:56:21.091Z,30.68
2022-08-17T04:58:51.910Z,31.17
2022-08-17T05:01:23.676Z,31.70
2022-08-17T05:03:53.676Z,31.97
2022-08-17T05:06:20.709Z,31.93
2022-08-17T05:08:47.792Z,31.56
2022-08-17T05:11:15.028Z,31.64
2022-08-17T05:13:42.217Z,31.16
2022-08-17T05:16:09.278Z,31.25
2022-08-17T05:18:38.806Z,31.11
2022-08-17T05:21:06.930Z,31.05
2022-08-17T05:23:41.633Z,31.46
2022-08-17T05:26:22.551Z,31.76
2022-08-17T05:28:54.667Z,32.53
2022-08-17T05:31:24.709Z,32.83
2022-08-17T05:33:51.593Z,33.00
2022-08-17T05:36:43.305Z,33.41
2022-08-17T05:39:05.444Z,33.29
2022-08-17T05:41:32.294Z,33.41
2022-08-17T05:43:59.324Z,33.93
2022-08-17T05:46:31.802Z,34.29
2022-08-17T05:49:03.635Z,35.07
2022-08-17T05:51:49.262Z,35.63
2022-08-17T05:54:47.334Z,35.85
2022-08-17T05:57:35.620Z,35.83
2022-08-17T06:00:14.380Z,36.06
2022-08-17T06:02:58.228Z,36.41
2022-08-17T06:05:48.418Z,36.28
2022-08-17T06:08:29.156Z,36.30
2022-08-17T06:11:01.623Z,36.10
2022-08-17T06:13:42.226Z,35.94
2022-08-17T06:16:33.291Z,34.46
2022-08-17T06:19:17.249Z,32.78
2022-08-17T06:21:48.475Z,32.64
2022-08-17T06:24:34.353Z,32.88
2022-08-17T06:27:23.556Z,33.19
2022-08-17T06:30:09.379Z,33.89
2022-08-17T06:32:38.719Z,34.19
2022-08-17T06:35:07.622Z,33.83
2022-08-17T06:37:53.074Z,34.16
2022-08-17T06:40:46.281Z,33.65
2022-08-17T06:43:34.333Z,33.71
2022-08-17T06:46:12.956Z,33.72
2022-08-17T06:49:16.980Z,33.50
2022-08-17T06:51:52.189Z,34.41
2022-08-17T06:54:32.000Z,34.89
2022-08-17T06:57:23.171Z,35.69
2022-08-17T06:59:56.723Z,35.49
2022-08-17T07:02:51.512Z,35.72
2022-08-17T07:05:24.337Z,36.06
2022-08-17T07:08:11.661Z,36.41
2022-08-17T07:10:44.566Z,36.46
2022-08-17T07:13:44.502Z,36.52
2022-08-17T07:16:30.904Z,36.28
2022-08-17T07:18:59.476Z,35.82
2022-08-17T07:21:40.865Z,35.41
2022-08-17T07:24:29.449Z,35.04
2022-08-17T07:27:16.546Z,34.83
2022-08-17T07:29:49.610Z,34.79
2022-08-17T07:32:20.234Z,34.92
2022-08-17T07:35:07.517Z,34.95
2022-08-17T07:37:44.610Z,35.25
2022-08-17T07:40:19.274Z,35.82
2022-08-17T07:43:08.497Z,36.27
2022-08-17T07:46:12.017Z,36.46
2022-08-17T07:48:41.488Z,36.85
2022-08-17T07:51:22.566Z,37.71
2022-08-17T07:53:49.517Z,38.64
2022-08-17T07:56:51.122Z,40.16
2022-08-17T07:59:33.197Z,39.95
2022-08-17T08:02:08.149Z,40.08
2022-08-17T08:07:31.924Z,40.92
2022-08-17T08:10:13.114Z,41.59
2022-08-17T08:12:43.658Z,42.29
2022-08-17T08:15:15.370Z,42.78
2022-08-17T08:17:50.296Z,42.33
2022-08-17T08:20:42.441Z,42.45
2022-08-17T08:23:19.133Z,42.50
2022-08-17T08:26:03.205Z,41.65
2022-08-17T08:28:36.608Z,40.85
2022-08-17T08:31:24.494Z,41.22
2022-08-17T08:34:01.141Z,41.89
2022-08-17T08:37:15.991Z,41.92
2022-08-17T08:39:54.031Z,42.39
2022-08-17T08:43:10.675Z,42.63
2022-08-17T08:46:07.040Z,43.13
2022-08-17T08:49:00.974Z,43.38
2022-08-17T08:51:53.337Z,43.78
2022-08-17T08:55:02.025Z,43.81
2022-08-17T08:57:36.643Z,43.67
2022-08-17T09:00:14.796Z,44.01
2022-08-17T09:02:59.903Z,43.88
2022-08-17T09:05:52.807Z,43.37
2022-08-17T09:08:29.932Z,42.84
2022-08-17T09:11:00.669Z,42.77
2022-08-17T09:14:02.879Z,42.86
2022-08-17T09:16:36.325Z,43.88
2022-08-17T09:19:15.964Z,43.70
2022-08-17T09:21:52.759Z,44.27
2022-08-17T09:24:32.017Z,44.34
2022-08-17T09:27:08.795Z,45.03
2022-08-17T09:29:42.821Z,45.80
2022-08-17T09:32:17.688Z,46.14
2022-08-17T09:34:52.661Z,45.83
2022-08-17T09:37:19.481Z,44.96
2022-08-17T09:40:15.570Z,44.58
2022-08-17T09:43:04.646Z,44.39
2022-08-17T09:45:35.409Z,44.68
2022-08-17T09:48:10.960Z,44.53
2022-08-17T09:51:07.766Z,43.81
2022-08-17T09:53:39.122Z,43.38
2022-08-17T09:56:20.910Z,43.08
2022-08-17T09:59:22.239Z,42.48
2022-08-17T10:02:13.705Z,41.80
2022-08-17T10:04:40.902Z,42.25
2022-08-17T10:07:15.357Z,42.51
2022-08-17T10:09:57.157Z,42.06
2022-08-17T10:12:46.358Z,42.39
2022-08-17T10:15:43.301Z,42.69
2022-08-17T10:18:31.961Z,43.26
2022-08-17T10:21:26.424Z,43.97
2022-08-17T10:24:37.362Z,43.98
2022-08-17T10:27:11.120Z,44.90
2022-08-17T10:30:00.999Z,45.94
2022-08-17T10:32:31.412Z,47.18
2022-08-17T10:35:29.190Z,47.22
2022-08-17T10:38:12.673Z,46.70
2022-08-17T10:41:18.053Z,45.58
2022-08-17T10:44:39.319Z,45.19
2022-08-17T10:47:09.764Z,44.51
2022-08-17T10:49:39.533Z,43.28
2022-08-17T10:52:41.472Z,42.18
2022-08-17T10:55:17.913Z,41.47
2022-08-17T10:57:50.297Z,41.04
2022-08-17T11:00:28.447Z,40.82
2022-08-17T11:02:57.500Z,40.76
2022-08-17T11:06:12.782Z,40.73
2022-08-17T11:09:08.914Z,40.46
2022-08-17T11:11:58.876Z,39.73
2022-08-17T11:14:34.882Z,39.57
2022-08-17T11:17:09.174Z,40.14
2022-08-17T11:20:13.439Z,40.68
2022-08-17T11:23:25.509Z,40.49
2022-08-17T11:25:55.570Z,40.01
2022-08-17T11:28:25.474Z,39.56
2022-08-17T11:30:57.690Z,39.55
2022-08-17T11:33:36.644Z,39.60
2022-08-17T11:36:12.710Z,39.34
2022-08-17T11:39:04.869Z,39.22
2022-08-17T11:41:55.107Z,39.15
2022-08-17T11:44:40.545Z,39.44
2022-08-17T11:48:23.883Z,39.99
2022-08-17T11:51:19.380Z,39.81
2022-08-17T11:53:46.158Z,39.25
2022-08-17T11:56:38.416Z,38.86
2022-08-17T11:59:39.188Z,39.14
2022-08-17T12:02:34.975Z,40.19
2022-08-17T12:05:04.507Z,40.99
2022-08-17T12:07:43.717Z,40.78
2022-08-17T12:10:13.133Z,40.82
2022-08-17T12:12:44.203Z,41.09
2022-08-17T12:15:28.852Z,41.39
2022-08-17T12:17:57.376Z,41.33
2022-08-17T12:20:28.382Z,41.23
2022-08-17T12:23:09.937Z,41.12
2022-08-17T12:26:01.062Z,40.84
2022-08-17T12:28:31.758Z,40.40
2022-08-17T12:31:02.989Z,39.64
2022-08-17T12:33:30.527Z,39.18
2022-08-17T12:36:05.098Z,38.69
2022-08-17T12:38:36.122Z,37.61
2022-08-17T12:41:24.911Z,36.79
2022-08-17T12:44:12.336Z,36.57
2022-08-17T12:47:23.294Z,35.95
2022-08-17T12:49:55.252Z,35.92
2022-08-17T12:52:27.298Z,35.75
2022-08-17T12:55:07.132Z,35.71
2022-08-17T12:57:42.659Z,35.70
2022-08-17T13:00:21.522Z,35.67
2022-08-17T13:03:07.918Z,35.67
2022-08-17T13:05:39.818Z,35.49
2022-08-17T13:08:18.327Z,35.71
2022-08-17T13:10:55.670Z,35.87
2022-08-17T13:13:29.071Z,36.19
2022-08-17T13:15:59.636Z,36.48
2022-08-17T13:18:42.905Z,36.86
2022-08-17T13:21:19.008Z,36.68
2022-08-17T13:23:58.121Z,36.69
2022-08-17T13:26:50.013Z,36.80
2022-08-17T13:29:28.747Z,36.17
2022-08-17T13:32:16.027Z,36.34
2022-08-17T13:35:12.591Z,36.17
2022-08-17T13:37:36.993Z,36.34
2022-08-17T13:40:03.965Z,36.31
2022-08-17T13:42:53.353Z,36.53
2022-08-17T13:53:14.249Z,36.64
2022-08-17T13:56:37.759Z,36.64
2022-08-17T13:59:00.542Z,36.39
2022-08-17T14:01:44.263Z,36.24
2022-08-17T14:04:21.481Z,36.03
2022-08-17T14:07:22.509Z,35.69
2022-08-17T14:09:55.056Z,35.18
2022-08-17T14:12:27.636Z,34.94
2022-08-17T14:14:59.818Z,34.66
2022-08-17T14:17:36.364Z,34.42
2022-08-17T14:20:10.790Z,34.10
2022-08-17T14:22:41.059Z,33.44
2022-08-17T14:25:10.451Z,33.16
2022-08-17T14:27:53.268Z,32.88
2022-08-17T14:30:22.995Z,32.71
2022-08-17T14:32:52.132Z,32.61
2022-08-17T14:35:22.123Z,32.36
2022-08-17T14:37:49.672Z,32.13
2022-08-17T14:40:20.473Z,31.78
2022-08-17T14:42:48.137Z,31.59
2022-08-17T14:45:30.172Z,31.64
2022-08-17T14:48:08.613Z,31.41
2022-08-17T14:50:38.869Z,31.39
2022-08-17T14:53:08.272Z,31.62
2022-08-17T14:55:37.288Z,31.92
2022-08-17T14:58:04.363Z,32.02
2022-08-17T15:00:32.524Z,32.10
2022-08-17T15:03:01.259Z,32.11
2022-08-17T15:05:32.170Z,32.35
2022-08-17T15:08:01.231Z,32.25
2022-08-17T15:10:29.373Z,32.40
2022-08-17T15:12:58.447Z,31.97
2022-08-17T15:15:25.533Z,31.84
2022-08-17T15:17:52.427Z,31.85
2022-08-17T15:20:23.889Z,31.98
2022-08-17T15:22:55.435Z,32.06
2022-08-17T15:25:23.661Z,31.81
2022-08-17T15:27:50.936Z,31.75
2022-08-17T15:30:18.076Z,31.58
2022-08-17T15:32:50.653Z,31.63
2022-08-17T15:35:25.167Z,31.55
2022-08-17T15:38:11.817Z,31.41
2022-08-17T15:40:43.093Z,31.00
2022-08-17T15:43:13.885Z,30.49
2022-08-17T15:45:41.101Z,30.18
2022-08-17T15:48:08.991Z,30.02
2022-08-17T15:50:36.267Z,29.81
2022-08-17T15:53:04.970Z,29.57
2022-08-17T15:55:33.422Z,29.51
2022-08-17T15:58:01.857Z,29.34
2022-08-17T16:00:29.553Z,29.17
2022-08-17T16:03:14.491Z,28.92
2022-08-17T16:05:46.734Z,28.77
2022-08-17T16:08:20.048Z,28.79
2022-08-17T16:10:47.836Z,28.66
2022-08-17T16:13:17.442Z,28.63
2022-08-17T16:15:49.720Z,28.54
2022-08-17T16:18:20.625Z,28.40
2022-08-17T16:20:47.652Z,28.33
2022-08-17T16:23:19.920Z,28.21
2022-08-17T16:25:52.828Z,28.08
2022-08-17T16:28:22.638Z,27.95
2022-08-17T16:31:02.722Z,27.85
2022-08-17T16:33:30.923Z,27.72
2022-08-17T16:35:58.262Z,27.66
2022-08-17T16:38:25.143Z,27.59
2022-08-17T16:40:52.010Z,27.52
2022-08-17T16:43:19.371Z,27.43
2022-08-17T16:45:51.849Z,27.31
2022-08-17T16:48:19.796Z,27.17
2022-08-17T16:51:03.294Z,27.06
2022-08-17T16:53:31.445Z,26.93
2022-08-17T16:55:58.514Z,26.79
2022-08-17T16:58:25.430Z,26.62
2022-08-17T17:00:52.382Z,26.51
2022-08-17T17:03:23.529Z,26.38
2022-08-17T17:06:28.566Z,26.21
2022-08-17T17:21:15.275Z,24.64
2022-08-17T17:24:09.578Z,24.46
2022-08-17T17:26:53.968Z,24.31
2022-08-17T17:29:47.650Z,24.21
2022-08-17T17:32:31.039Z,24.12
2022-08-17T17:35:07.017Z,24.08
2022-08-17T17:37:35.771Z,24.04
2022-08-17T17:40:24.269Z,24.00
2022-08-17T17:43:14.377Z,23.95
2022-08-17T17:46:27.114Z,23.89
2022-08-17T17:48:57.518Z,23.81
2022-08-17T17:52:11.020Z,23.77
2022-08-17T17:54:55.806Z,23.68
2022-08-17T17:57:51.698Z,23.64
2022-08-17T18:00:29.638Z,23.62
2022-08-17T18:03:18.059Z,23.58
2022-08-17T18:05:50.606Z,23.53
2022-08-17T18:08:36.241Z,23.50
2022-08-17T18:11:24.623Z,23.43
2022-08-17T18:14:19.781Z,23.40
2022-08-17T18:16:48.164Z,23.35
2022-08-17T18:19:25.116Z,23.33
2022-08-17T18:22:04.283Z,23.30
2022-08-17T18:24:39.983Z,23.26
2022-08-17T18:27:34.667Z,23.26
2022-08-17T18:30:28.923Z,23.22
2022-08-17T18:33:23.833Z,23.19
2022-08-17T18:35:58.519Z,23.14
2022-08-17T18:38:35.338Z,23.11
2022-08-17T18:41:21.270Z,23.07
2022-08-17T18:44:31.493Z,23.02
2022-08-17T18:47:18.697Z,22.97
2022-08-17T18:49:56.418Z,22.90
2022-08-17T18:52:29.021Z,22.80
2022-08-17T18:54:58.876Z,22.70
2022-08-17T18:57:34.691Z,22.57
2022-08-17T19:00:10.168Z,22.48
2022-08-17T19:03:00.682Z,22.38
2022-08-17T19:05:41.535Z,22.29
2022-08-17T19:08:31.839Z,22.21
2022-08-17T19:10:59.964Z,22.13
2022-08-17T19:13:37.495Z,22.06
2022-08-17T19:16:18.645Z,21.95
2022-08-17T19:18:48.814Z,21.89
2022-08-17T19:21:20.606Z,21.85
2022-08-17T19:24:06.661Z,21.80
2022-08-17T19:26:54.896Z,21.77
2022-08-17T19:30:05.532Z,21.71
2022-08-17T19:32:35.829Z,21.63
2022-08-17T19:35:04.893Z,21.59
2022-08-17T19:38:06.268Z,21.54
2022-08-17T19:41:07.511Z,21.44
2022-08-17T19:43:53.229Z,21.35
2022-08-17T19:46:48.544Z,21.31
2022-08-17T19:49:22.794Z,21.24
2022-08-17T19:52:11.259Z,21.20
2022-08-17T19:54:48.024Z,21.15
2022-08-17T19:57:23.995Z,21.12
2022-08-17T20:00:03.201Z,21.07
2022-08-17T20:02:34.033Z,21.00
2022-08-17T20:05:07.273Z,20.95
2022-08-17T20:07:59.129Z,20.91
2022-08-17T20:10:48.118Z,20.83
2022-08-17T20:13:35.313Z,20.79
2022-08-17T20:16:04.160Z,20.73
2022-08-17T20:18:55.400Z,20.67
2022-08-17T20:21:37.126Z,20.59
2022-08-17T20:24:20.591Z,20.54
2022-08-17T20:26:58.335Z,20.51
2022-08-17T20:29:37.716Z,20.47
2022-08-17T20:32:18.314Z,20.43
2022-08-17T20:34:47.668Z,20.38
2022-08-17T20:37:14.565Z,20.35
2022-08-17T20:39:45.639Z,20.32
2022-08-17T20:42:15.659Z,20.28
2022-08-17T20:44:43.489Z,20.23
2022-08-17T20:47:18.414Z,20.18
2022-08-17T20:49:45.314Z,20.13
2022-08-17T20:52:31.872Z,20.10
2022-08-17T20:54:58.917Z,20.05
2022-08-17T20:57:34.347Z,20.01
2022-08-17T21:00:17.934Z,19.97
2022-08-17T21:02:51.448Z,19.93
2022-08-17T21:05:48.945Z,19.89
2022-08-17T21:08:33.617Z,19.82
2022-08-17T21:11:21.648Z,19.79
2022-08-17T21:14:22.526Z,19.72
2022-08-17T21:17:02.458Z,19.69
2022-08-17T21:20:12.558Z,19.65
2022-08-17T21:22:48.000Z,19.60
2022-08-17T21:25:24.602Z,19.54
2022-08-17T21:28:10.090Z,19.52
2022-08-17T21:30:39.456Z,19.50
2022-08-17T21:33:32.554Z,19.48
2022-08-17T21:35:59.316Z,19.45
2022-08-17T21:38:51.562Z,19.42
2022-08-17T21:41:27.297Z,19.39
2022-08-17T21:44:01.814Z,19.36
2022-08-17T21:46:39.322Z,19.32
2022-08-17T21:49:13.786Z,19.28
2022-08-17T21:51:53.844Z,19.26
2022-08-17T21:54:25.296Z,19.22
2022-08-17T21:56:53.125Z,19.19
2022-08-17T21:59:19.908Z,19.15
2022-08-17T22:02:08.698Z,19.09
2022-08-17T22:04:38.772Z,19.05
2022-08-17T22:07:10.196Z,19.02
2022-08-17T22:09:44.883Z,18.99
2022-08-17T22:12:22.818Z,18.98
2022-08-17T22:14:55.422Z,18.96
2022-08-17T22:17:26.161Z,18.94
2022-08-17T22:20:00.501Z,18.91
2022-08-17T22:22:57.508Z,18.91
2022-08-17T22:25:26.387Z,18.90
2022-08-17T22:27:56.734Z,18.90
2022-08-17T22:30:35.364Z,18.89
2022-08-17T22:33:31.486Z,18.90
2022-08-17T22:36:30.275Z,18.88
2022-08-17T22:39:01.852Z,18.87
2022-08-17T22:41:51.434Z,18.86
2022-08-17T22:44:23.351Z,18.85
2022-08-17T22:46:53.189Z,18.85
2022-08-17T22:49:54.199Z,18.91
2022-08-17T22:52:32.291Z,18.92
2022-08-17T22:55:35.151Z,18.96
2022-08-17T22:58:28.385Z,19.00
2022-08-17T23:00:55.837Z,19.05
2022-08-17T23:03:28.098Z,19.13
2022-08-17T23:06:05.821Z,19.18
2022-08-17T23:08:35.689Z,19.22
2022-08-17T23:11:02.746Z,19.24
2022-08-17T23:13:33.496Z,19.26
2022-08-17T23:16:00.330Z,19.27
2022-08-17T23:18:27.431Z,19.30
2022-08-17T23:20:54.341Z,19.31
2022-08-17T23:23:23.723Z,19.36
2022-08-17T23:25:50.777Z,19.39
2022-08-17T23:28:17.647Z,19.41
2022-08-17T23:30:46.676Z,19.43
2022-08-17T23:33:26.551Z,19.45
2022-08-17T23:35:54.119Z,19.47
2022-08-17T23:38:21.914Z,19.53
2022-08-17T23:40:48.693Z,19.59
2022-08-17T23:43:24.338Z,19.60
2022-08-17T23:45:54.635Z,19.63
2022-08-17T23:48:35.096Z,19.64
2022-08-17T23:51:08.809Z,19.66
2022-08-17T23:53:37.215Z,19.67
2022-08-17T23:56:10.317Z,19.65
2022-08-17T23:58:39.262Z,19.65
